Time;durP1;ratioP1;P1;durP2;ratioP2;P2;SDS_P1;SDS_P2;PMS_P1;PMS_P2;Temp;Humidity;BMP_temperature;BMP_pressure;BME280_temperature;BME280_humidity;BME280_pressure;Samples;Min_cycle;Max_cycle;Signal;HPM_P1;HPM_P2
2022/08/24 00:03:53;;;;;;;142.00;23.60;;;;;;;18.06;100.00;98851.92;220701;1276;22535;-78
2022/08/24 00:09:39;;;;;;;109.70;22.50;;;;;;;18.05;100.00;98850.66;110201;1276;1016617;-79
2022/08/24 00:14:45;;;;;;;98.20;24.60;;;;;;;18.05;100.00;98851.84;109957;1276;1018462;-79
2022/08/24 00:20:35;;;;;;;113.40;26.60;;;;;;;18.09;100.00;98852.02;110106;1276;1016754;-79
2022/08/24 00:26:09;;;;;;;119.50;28.10;;;;;;;18.15;100.00;98850.07;110104;1277;1016382;-79
2022/08/24 00:32:07;;;;;;;125.00;29.00;;;;;;;18.19;100.00;98847.25;110075;1276;1017699;-79
2022/08/24 00:37:36;;;;;;;112.60;28.40;;;;;;;18.22;100.00;98841.13;110101;1276;1016957;-79
2022/08/24 00:43:10;;;;;;;124.20;29.60;;;;;;;18.26;100.00;98850.64;109893;1277;1016711;-79
2022/08/24 00:48:56;;;;;;;123.00;30.50;;;;;;;18.27;100.00;98860.55;110130;1277;1016631;-79
2022/08/24 00:54:42;;;;;;;;;;;;;;;;;;;;;
2022/08/24 01:00:23;;;;;;;;;;;;;;;18.34;100.00;98864.92;220440;1276;23038;-80
2022/08/24 01:06:50;;;;;;;;;;;;;;;;;;;;;
2022/08/24 01:12:18;;;;;;;111.20;24.50;;;;;;;18.32;100.00;98874.85;110170;1277;1016737;-78
2022/08/24 01:23:35;;;;;;;123.00;25.00;;;;;;;18.29;100.00;98879.89;220462;1277;22615;-79
2022/08/24 01:28:46;;;;;;;125.90;24.80;;;;;;;18.31;100.00;98882.42;219772;1277;24159;-78
2022/08/24 01:34:13;;;;;;;124.10;23.70;;;;;;;18.29;100.00;98884.61;219849;1276;22575;-82
2022/08/24 01:39:57;;;;;;;125.60;22.10;;;;;;;18.25;100.00;98890.69;220045;1277;25312;-79
2022/08/24 01:45:09;;;;;;;123.60;23.10;;;;;;;18.23;100.00;98889.89;219425;1277;1238453;-80
2022/08/24 01:50:32;;;;;;;122.60;22.60;;;;;;;18.19;100.00;98893.17;220534;1276;25330;-80
2022/08/24 01:56:12;;;;;;;126.30;22.70;;;;;;;18.15;100.00;98888.56;220552;1277;23853;-80
2022/08/24 02:01:55;;;;;;;122.70;21.30;;;;;;;18.13;100.00;98892.89;220608;1276;22721;-79
2022/08/24 02:07:25;;;;;;;112.90;20.50;;;;;;;18.08;100.00;98890.42;220520;1276;24314;-80
2022/08/24 02:12:45;;;;;;;123.40;20.20;;;;;;;18.06;100.00;98892.52;220757;1276;22593;-80
2022/08/24 02:18:01;;;;;;;145.10;20.80;;;;;;;18.07;100.00;98885.02;220141;1276;22588;-80
2022/08/24 02:23:22;;;;;;;122.80;20.30;;;;;;;18.04;100.00;98881.23;220442;1277;22699;-81
2022/08/24 02:29:06;;;;;;;148.40;21.90;;;;;;;18.07;100.00;98889.30;220529;1277;22606;-80
2022/08/24 02:34:33;;;;;;;111.90;19.20;;;;;;;18.07;100.00;98885.75;220514;1277;25411;-80
2022/08/24 02:40:04;;;;;;;;;;;;;;;;;;;;;
2022/08/24 02:45:56;;;;;;;125.60;19.60;;;;;;;18.03;100.00;98878.86;220738;1277;23073;-80
2022/08/24 02:51:26;;;;;;;101.60;17.30;;;;;;;18.04;100.00;98886.86;219939;1277;22592;-82
2022/08/24 02:57:13;;;;;;;100.30;16.70;;;;;;;18.04;100.00;98894.30;220434;1276;22572;-80
2022/08/24 03:02:55;;;;;;;101.90;16.80;;;;;;;18.03;100.00;98897.52;220656;1276;22542;-80
2022/08/24 03:08:05;;;;;;;117.80;18.20;;;;;;;18.04;100.00;98895.77;220692;1276;22546;-79
2022/08/24 03:13:33;;;;;;;105.60;18.10;;;;;;;18.05;100.00;98897.13;220292;1277;22878;-81
2022/08/24 03:19:02;;;;;;;115.30;17.90;;;;;;;18.03;100.00;98895.13;220470;1276;22620;-80
2022/08/24 03:24:41;;;;;;;132.70;18.80;;;;;;;18.00;100.00;98898.04;220650;1276;26379;-79
2022/08/24 03:30:12;;;;;;;;;;;;;;;;;;;;;
2022/08/24 03:35:49;;;;;;;104.30;16.50;;;;;;;17.99;100.00;98905.42;220837;1277;22597;-79
2022/08/24 03:41:40;;;;;;;143.00;18.80;;;;;;;17.97;100.00;98908.39;220785;1276;22620;-80
2022/08/24 03:47:09;;;;;;;115.80;19.20;;;;;;;17.98;100.00;98906.41;220397;1277;22601;-79
2022/08/24 03:52:44;;;;;;;143.00;19.40;;;;;;;17.99;100.00;98911.25;220752;1276;23827;-80
2022/08/24 03:58:10;;;;;;;101.50;17.30;;;;;;;18.02;100.00;98917.17;220714;1276;22560;-79
2022/08/24 04:03:57;;;;;;;103.60;15.70;;;;;;;18.01;100.00;98922.87;220536;1276;24811;-80
2022/08/24 04:09:32;;;;;;;114.00;18.10;;;;;;;18.01;100.00;98911.45;220364;1277;22532;-78
2022/08/24 04:15:48;;;;;;;123.70;17.20;;;;;;;18.04;100.00;98912.89;220656;1277;24887;-79
2022/08/24 04:21:47;;;;;;;;;;;;;;;;;;;;;
2022/08/24 04:27:22;;;;;;;122.40;18.10;;;;;;;18.10;100.00;98911.23;220629;1277;25528;-80
2022/08/24 04:33:15;;;;;;;118.70;18.40;;;;;;;18.12;100.00;98911.53;220822;1277;24160;-80
2022/08/24 04:38:52;;;;;;;125.30;20.00;;;;;;;18.11;100.00;98912.10;220779;1276;24378;-80
2022/08/24 04:45:04;;;;;;;;;;;;;;;;;;;;;
2022/08/24 04:51:04;;;;;;;137.50;19.10;;;;;;;18.22;100.00;98900.89;220590;1277;25409;-80
2022/08/24 04:56:23;;;;;;;125.20;20.50;;;;;;;18.30;100.00;98909.26;220848;1275;24262;-78
2022/08/24 05:01:45;;;;;;;117.90;19.30;;;;;;;18.35;100.00;98919.52;220715;1277;25315;-80
2022/08/24 05:06:54;;;;;;;109.60;18.80;;;;;;;18.42;100.00;98919.49;220073;1277;22567;-79
2022/08/24 05:12:20;;;;;;;110.30;19.60;;;;;;;18.48;100.00;98910.93;220566;1277;22714;-80
2022/08/24 05:17:33;;;;;;;109.10;19.00;;;;;;;18.53;100.00;98920.48;220059;1281;22569;-81
2022/08/24 05:22:48;;;;;;;112.90;19.30;;;;;;;18.53;100.00;98920.95;220157;1280;22552;-80
2022/08/24 05:28:08;;;;;;;119.90;20.90;;;;;;;18.56;100.00;98924.77;219925;1280;24250;-81
2022/08/24 05:33:47;;;;;;;113.90;19.60;;;;;;;18.62;100.00;98923.34;220114;1281;24280;-80
2022/08/24 05:39:03;;;;;;;117.60;20.40;;;;;;;18.66;100.00;98924.77;220137;1281;24329;-79
2022/08/24 05:44:40;;;;;;;;;;;;;;;;;;;;;
2022/08/24 05:49:55;;;;;;;117.10;20.00;;;;;;;18.77;100.00;98935.73;220536;1277;22576;-79
2022/08/24 05:55:04;;;;;;;102.80;21.50;;;;;;;18.81;100.00;98927.66;221057;1277;22610;-80
2022/08/24 06:00:32;;;;;;;93.00;20.30;;;;;;;18.89;100.00;98938.15;222582;1276;22663;-81
2022/08/24 06:05:46;;;;;;;89.20;21.70;;;;;;;18.98;100.00;98933.31;222406;1277;23212;-81
2022/08/24 06:11:00;;;;;;;88.40;20.70;;;;;;;19.11;100.00;98934.65;221529;1277;25258;-81
2022/08/24 06:16:23;;;;;;;71.50;19.50;;;;;;;19.17;100.00;98932.59;221975;1277;22588;-77
2022/08/24 06:21:47;;;;;;;75.40;21.70;;;;;;;19.26;100.00;98934.55;220469;1277;22714;-80
2022/08/24 06:32:32;;;;;;;78.50;20.80;;;;;;;19.41;100.00;98925.54;221682;1277;22537;-76
2022/08/24 06:37:46;;;;;;;71.40;20.60;;;;;;;19.47;100.00;98924.98;220499;1277;22591;-76
2022/08/24 06:43:01;;;;;;;82.70;22.00;;;;;;;19.55;100.00;98939.21;220584;1277;25287;-76
2022/08/24 06:48:18;;;;;;;65.30;20.80;;;;;;;19.70;100.00;98945.99;220359;1277;22538;-78
2022/08/24 06:53:58;;;;;;;62.60;18.90;;;;;;;19.92;100.00;98951.13;220127;1277;22611;-77
2022/08/24 06:59:05;;;;;;;63.50;20.80;;;;;;;20.07;100.00;98952.30;220598;1277;22549;-78
2022/08/24 07:04:11;;;;;;;68.80;21.60;;;;;;;20.20;100.00;98966.95;202770;1277;1005681;-77
2022/08/24 07:09:57;;;;;;;61.40;20.10;;;;;;;20.24;100.00;98966.52;215727;1277;1004121;-77
2022/08/24 07:15:19;;;;;;;61.90;21.20;;;;;;;20.28;100.00;98964.06;219903;1279;22554;-78
2022/08/24 07:20:32;;;;;;;59.00;20.30;;;;;;;20.37;100.00;98968.34;210747;1277;1003849;-77
2022/08/24 07:26:13;;;;;;;50.20;20.20;;;;;;;20.47;100.00;98973.63;220488;1276;25254;-78
2022/08/24 07:31:33;;;;;;;58.80;21.80;;;;;;;20.49;100.00;98974.47;220467;1277;22646;-78
2022/08/24 07:36:47;;;;;;;55.20;21.80;;;;;;;20.57;100.00;98970.33;220402;1277;22540;-78
2022/08/24 07:41:56;;;;;;;54.80;23.20;;;;;;;20.63;100.00;98967.66;220432;1276;22600;-78
2022/08/24 07:47:23;;;;;;;45.70;21.20;;;;;;;20.65;100.00;98977.69;220581;1277;24284;-80
2022/08/24 07:53:07;;;;;;;58.70;24.70;;;;;;;20.68;100.00;98987.95;221241;1276;24326;-77
2022/08/24 07:58:44;;;;;;;47.30;22.40;;;;;;;20.76;100.00;98995.00;220415;1276;23346;-77
2022/08/24 08:04:00;;;;;;;45.30;21.40;;;;;;;20.86;100.00;98998.76;221486;1277;25507;-78
2022/08/24 08:09:17;;;;;;;38.50;19.70;;;;;;;21.03;100.00;98993.46;221275;1277;25425;-78
2022/08/24 08:14:37;;;;;;;35.10;18.60;;;;;;;21.25;100.00;98986.18;221324;1277;22737;-77
2022/08/24 08:20:14;;;;;;;34.80;19.40;;;;;;;21.59;100.00;98988.28;220267;1277;22631;-77
2022/08/24 08:25:58;;;;;;;;;;;;;;;;;;;;;
2022/08/24 08:31:47;;;;;;;35.10;20.20;;;;;;;22.17;100.00;99005.10;220652;1281;25271;-78
2022/08/24 08:37:01;;;;;;;32.00;18.20;;;;;;;22.38;100.00;99004.12;220737;1281;22554;-78
2022/08/24 08:42:38;;;;;;;31.00;19.50;;;;;;;22.49;100.00;99011.25;219761;1282;22750;-77
2022/08/24 08:49:01;;;;;;;39.80;20.60;;;;;;;22.69;100.00;99009.51;219549;1281;22585;-78
2022/08/24 08:54:59;;;;;;;;;;;;;;;22.64;100.00;99010.74;219866;1287;22754;-77
2022/08/24 09:00:23;;;;;;;35.50;20.00;;;;;;;22.57;100.00;99012.87;219661;1287;24278;-78
2022/08/24 09:05:55;;;;;;;31.90;19.60;;;;;;;22.60;100.00;99007.86;220534;1281;22586;-78
2022/08/24 09:11:33;;;;;;;31.00;19.10;;;;;;;22.70;100.00;99007.25;220658;1282;25393;-78
2022/08/24 09:17:10;;;;;;;30.50;20.00;;;;;;;22.75;100.00;99018.58;220510;1282;25323;-78
2022/08/24 09:22:29;;;;;;;31.40;18.60;;;;;;;22.90;100.00;99022.34;220718;1281;24339;-78
2022/08/24 09:28:01;;;;;;;31.40;19.50;;;;;;;23.02;100.00;99028.54;219757;1282;22567;-79
2022/08/24 09:33:36;;;;;;;31.50;19.60;;;;;;;23.08;100.00;99026.45;220602;1281;22767;-78
2022/08/24 09:39:05;;;;;;;34.80;19.50;;;;;;;23.01;100.00;99024.77;220696;1281;24238;-78
2022/08/24 09:45:10;;;;;;;39.50;21.50;;;;;;;22.99;100.00;99021.85;220581;1282;22796;-78
2022/08/24 09:51:21;;;;;;;35.30;21.90;;;;;;;23.12;100.00;99016.61;220622;1281;24226;-78
2022/08/24 09:56:57;;;;;;;35.30;21.00;;;;;;;23.20;100.00;99014.93;219822;1281;23968;-78
2022/08/24 10:03:01;;;;;;;41.40;22.60;;;;;;;23.16;100.00;99009.27;109746;1281;1017078;-77
2022/08/24 10:09:10;;;;;;;34.80;22.40;;;;;;;23.21;100.00;99013.55;110077;1284;1019303;-77
2022/08/24 10:14:41;;;;;;;35.40;23.00;;;;;;;23.21;100.00;99015.11;110045;1284;1016683;-77
2022/08/24 10:19:55;;;;;;;43.70;25.80;;;;;;;23.27;100.00;99010.84;109472;1285;1016313;-76
2022/08/24 10:25:43;;;;;;;44.10;27.10;;;;;;;23.58;100.00;99008.05;109373;1284;1016801;-77
2022/08/24 10:31:14;;;;;;;41.00;25.80;;;;;;;24.15;100.00;99006.83;109095;1281;1016452;-79
2022/08/24 10:36:43;;;;;;;40.70;29.60;;;;;;;24.61;100.00;99015.13;110412;1278;1018049;-77
2022/08/24 10:48:23;;;;;;;32.40;23.80;;;;;;;25.42;100.00;99015.87;110681;1276;1016565;-78
2022/08/24 10:53:39;;;;;;;35.30;25.30;;;;;;;25.33;100.00;99018.48;110046;1282;1016524;-78
2022/08/24 10:58:51;;;;;;;42.70;26.40;;;;;;;25.29;100.00;99016.39;109860;1282;1016672;-79
2022/08/24 11:03:56;;;;;;;39.40;26.90;;;;;;;25.48;100.00;99013.95;109939;1282;1019431;-77
2022/08/24 11:09:10;;;;;;;44.50;29.40;;;;;;;25.69;100.00;99016.95;109945;1283;1016218;-78
2022/08/24 11:14:29;;;;;;;41.00;27.70;;;;;;;25.75;100.00;99016.52;109716;1282;1017163;-78
2022/08/24 11:19:36;;;;;;;34.80;24.70;;;;;;;25.65;100.00;99022.89;110379;1282;1016592;-78
2022/08/24 11:24:48;;;;;;;38.10;26.00;;;;;;;25.50;100.00;99020.92;134215;1276;1016615;-78
2022/08/24 11:30:03;;;;;;;29.00;21.30;;;;;;;25.51;100.00;99021.41;221292;1276;25430;-77
2022/08/24 11:35:39;;;;;;;25.70;20.70;;;;;;;25.55;100.00;99014.23;221506;1276;22615;-79
2022/08/24 11:40:53;;;;;;;27.40;21.60;;;;;;;25.58;100.00;99014.01;169441;1276;1016085;-77
2022/08/24 11:46:22;;;;;;;24.90;20.50;;;;;;;25.82;100.00;99012.95;221225;1277;24268;-78
2022/08/24 11:51:55;;;;;;;29.20;21.00;;;;;;;26.00;100.00;99014.13;221564;1276;25488;-78
2022/08/24 11:57:40;;;;;;;30.00;20.80;;;;;;;26.10;100.00;99001.86;221546;1276;22651;-78
2022/08/24 12:03:38;;;;;;;26.00;20.00;;;;;;;26.29;100.00;99007.33;221284;1277;23323;-80
2022/08/24 12:08:56;;;;;;;;;;;;;;;26.52;100.00;99006.98;221213;1279;22598;-79
2022/08/24 12:14:17;;;;;;;28.70;19.50;;;;;;;26.65;99.45;99005.34;221628;1276;25290;-76
2022/08/24 12:19:32;;;;;;;21.90;17.30;;;;;;;26.83;99.78;99001.61;221540;1276;22569;-78
2022/08/24 12:24:58;;;;;;;27.80;19.10;;;;;;;26.92;99.14;99009.15;221259;1276;23809;-82
2022/08/24 12:30:15;;;;;;;28.80;18.40;;;;;;;26.85;98.75;99014.64;221394;1276;22658;-82
2022/08/24 12:35:26;;;;;;;28.20;19.00;;;;;;;26.84;98.82;99012.84;221455;1277;22553;-76
2022/08/24 12:41:10;;;;;;;28.60;19.10;;;;;;;26.72;98.06;99006.93;220372;1277;23359;-76
2022/08/24 12:46:43;;;;;;;29.20;18.00;;;;;;;26.56;97.60;99001.09;220377;1276;22824;-77
2022/08/24 12:52:15;;;;;;;28.80;17.30;;;;;;;26.44;97.74;98996.38;220232;1276;24740;-77
2022/08/24 12:58:12;;;;;;;25.10;17.30;;;;;;;26.56;98.11;98993.64;109982;1276;1016488;-76
2022/08/24 13:03:43;;;;;;;24.50;18.00;;;;;;;26.84;98.12;98984.88;109934;1276;1018949;-77
2022/08/24 13:08:49;;;;;;;28.50;18.40;;;;;;;27.00;97.15;98982.83;109948;1276;1016498;-79
2022/08/24 13:14:11;;;;;;;31.50;16.00;;;;;;;26.91;96.55;98984.50;196100;1276;1016707;-75
2022/08/24 13:19:40;;;;;;;37.80;18.40;;;;;;;26.94;96.20;98984.48;220260;1277;22546;-77
2022/08/24 13:24:52;;;;;;;28.10;17.20;;;;;;;27.05;95.97;98985.56;222040;1276;24119;-77
2022/08/24 13:30:03;;;;;;;27.50;16.90;;;;;;;27.07;95.69;98987.54;220288;1278;22569;-79
2022/08/24 13:35:37;;;;;;;23.10;15.10;;;;;;;27.00;95.15;98987.48;220043;1277;22643;-75
2022/08/24 13:40:48;;;;;;;25.70;16.00;;;;;;;26.98;95.64;98978.36;219820;1279;22942;-75
2022/08/24 13:46:16;;;;;;;25.40;17.30;;;;;;;27.07;95.58;98976.38;217225;1276;4532535;-76
2022/08/24 13:52:18;;;;;;;26.80;17.10;;;;;;;27.07;95.69;98973.95;220227;1279;23024;-76
2022/08/24 13:58:14;;;;;;;26.20;17.70;;;;;;;27.03;95.77;98971.67;220701;1278;22721;-77
2022/08/24 14:03:36;;;;;;;21.60;16.90;;;;;;;26.92;93.90;98966.42;220250;1280;24322;-76
2022/08/24 14:09:16;;;;;;;25.90;16.80;;;;;;;26.92;95.32;98962.42;220381;1280;24259;-77
2022/08/24 14:14:44;;;;;;;25.70;16.80;;;;;;;26.93;95.15;98958.18;213666;1278;2002499;-77
2022/08/24 14:20:27;;;;;;;23.20;17.60;;;;;;;26.80;94.82;98956.77;220280;1278;25387;-75
2022/08/24 14:25:40;;;;;;;21.60;16.80;;;;;;;26.62;94.32;98952.36;220025;1278;23223;-76
2022/08/24 14:31:26;;;;;;;21.50;16.90;;;;;;;26.49;94.71;98940.82;219670;1277;22579;-76
2022/08/24 14:37:07;;;;;;;27.20;18.70;;;;;;;26.29;95.52;98939.08;219651;1277;23817;-78
2022/08/24 14:42:54;;;;;;;25.00;16.50;;;;;;;26.22;95.93;98935.62;219876;1278;25554;-75
2022/08/24 14:48:37;;;;;;;23.30;16.40;;;;;;;26.19;95.82;98930.28;205822;1278;1003916;-76
2022/08/24 14:54:10;;;;;;;25.10;17.90;;;;;;;26.09;95.85;98927.43;219888;1276;24423;-75
2022/08/24 15:00:00;;;;;;;24.40;15.80;;;;;;;26.02;95.76;98925.77;195129;1276;1016381;-76
2022/08/24 15:05:37;;;;;;;27.80;18.20;;;;;;;26.05;96.05;98924.85;220344;1276;23830;-75
2022/08/24 15:10:56;;;;;;;24.10;16.90;;;;;;;26.06;96.28;98922.80;219963;1276;24238;-75
2022/08/24 15:16:43;;;;;;;23.40;15.80;;;;;;;25.96;96.35;98932.16;219908;1276;22557;-75
2022/08/24 15:22:22;;;;;;;21.90;15.10;;;;;;;25.87;96.43;98941.79;219430;1279;22569;-74
2022/08/24 15:27:39;;;;;;;19.00;14.00;;;;;;;25.75;96.17;98955.30;219748;1276;24269;-75
2022/08/24 15:32:49;;;;;;;27.20;17.40;;;;;;;25.68;96.21;98947.67;219759;1276;22541;-77
2022/08/24 15:37:52;;;;;;;24.80;14.10;;;;;;;25.66;96.58;98942.02;219735;1278;25377;-75
2022/08/24 15:43:04;;;;;;;18.40;14.00;;;;;;;25.62;96.81;98938.72;219862;1276;22560;-75
2022/08/24 15:48:16;;;;;;;24.10;13.80;;;;;;;25.60;96.79;98942.55;220662;1276;24237;-76
2022/08/24 15:53:38;;;;;;;24.20;14.00;;;;;;;25.57;96.98;98948.80;220088;1276;23148;-74
2022/08/24 15:59:04;;;;;;;24.50;13.60;;;;;;;25.53;97.11;98953.25;220112;1276;24863;-75
2022/08/24 16:04:56;;;;;;;29.60;14.60;;;;;;;25.51;96.97;98939.45;219832;1276;25379;-75
2022/08/24 16:10:40;;;;;;;24.00;13.70;;;;;;;25.47;96.92;98940.52;219558;1278;25403;-76
2022/08/24 16:15:58;;;;;;;22.20;13.50;;;;;;;25.40;97.12;98939.88;219839;1276;24302;-77
2022/08/24 16:21:37;;;;;;;24.80;13.50;;;;;;;25.32;96.98;98935.69;219776;1278;22653;-76
2022/08/24 16:27:05;;;;;;;24.30;13.30;;;;;;;25.17;96.95;98936.75;219778;1279;22713;-75
2022/08/24 16:32:28;;;;;;;21.40;13.00;;;;;;;25.06;97.40;98950.38;220297;1278;24336;-76
2022/08/24 16:37:52;;;;;;;21.20;13.00;;;;;;;24.99;97.64;98946.83;219992;1276;25259;-76
2022/08/24 16:43:12;;;;;;;24.00;13.30;;;;;;;24.89;97.55;98941.19;220240;1278;24327;-76
2022/08/24 16:48:19;;;;;;;19.40;13.40;;;;;;;24.81;98.12;98941.12;220095;1276;24026;-74
2022/08/24 16:53:24;;;;;;;21.80;13.70;;;;;;;24.69;98.33;98942.91;219740;1277;24595;-75
2022/08/24 16:58:36;;;;;;;30.70;16.30;;;;;;;24.59;98.74;98953.77;219967;1279;22551;-77
2022/08/24 17:03:40;;;;;;;21.40;12.20;;;;;;;24.48;98.92;98950.38;219947;1276;24233;-75
2022/08/24 17:08:52;;;;;;;18.70;12.20;;;;;;;24.37;99.36;98952.40;220395;1276;22734;-76
2022/08/24 17:14:05;;;;;;;38.30;21.60;;;;;;;24.23;99.66;98942.80;219896;1276;25534;-76
2022/08/24 17:19:12;;;;;;;22.40;12.80;;;;;;;24.05;99.82;98945.83;219883;1276;24242;-74
2022/08/24 17:24:21;;;;;;;27.30;14.70;;;;;;;23.89;99.98;98952.36;219925;1276;22594;-75
2022/08/24 17:29:28;;;;;;;25.10;15.60;;;;;;;23.73;100.00;98944.42;219686;1277;25324;-75
2022/08/24 17:34:34;;;;;;;27.10;16.20;;;;;;;23.58;100.00;98957.45;219765;1275;24317;-75
2022/08/24 17:39:46;;;;;;;23.30;13.50;;;;;;;23.44;100.00;98961.88;219914;1277;24437;-75
2022/08/24 17:44:51;;;;;;;30.10;17.10;;;;;;;23.28;100.00;98960.17;220348;1276;22762;-76
2022/08/24 17:49:53;;;;;;;28.40;16.60;;;;;;;23.13;100.00;98968.85;220069;1276;22553;-76
2022/08/24 17:54:56;;;;;;;33.90;21.10;;;;;;;22.98;100.00;98962.84;219756;1277;22566;-77
2022/08/24 17:59:58;;;;;;;22.70;15.40;;;;;;;22.83;100.00;98958.53;191620;1277;1003910;-76
2022/08/24 18:05:02;;;;;;;26.00;17.70;;;;;;;22.69;100.00;98960.04;109736;1279;1016450;-75
2022/08/24 18:10:09;;;;;;;30.30;19.70;;;;;;;22.56;100.00;98962.79;109614;1276;1016384;-75
2022/08/24 18:15:18;;;;;;;36.70;22.10;;;;;;;22.45;100.00;98964.25;109784;1277;1016375;-76
2022/08/24 18:20:32;;;;;;;38.90;22.70;;;;;;;22.35;100.00;98975.52;109725;1277;1016678;-74
2022/08/24 18:25:38;;;;;;;30.10;21.80;;;;;;;22.26;100.00;98978.36;109827;1277;1016565;-75
2022/08/24 18:30:41;;;;;;;32.80;22.20;;;;;;;22.17;100.00;98973.15;109765;1276;1016646;-75
2022/08/24 18:35:50;;;;;;;32.60;20.40;;;;;;;22.10;100.00;98963.42;109666;1276;1016503;-73
2022/08/24 18:40:52;;;;;;;32.00;20.70;;;;;;;22.02;100.00;98963.44;109766;1276;1016554;-76
2022/08/24 18:45:55;;;;;;;35.60;23.90;;;;;;;21.96;100.00;98972.60;109707;1276;1018846;-76
2022/08/24 18:50:58;;;;;;;27.00;20.70;;;;;;;21.91;100.00;98971.79;110083;1276;1017137;-75
2022/08/24 18:56:02;;;;;;;40.30;25.00;;;;;;;21.81;100.00;98966.30;110139;1276;1017315;-75
2022/08/24 19:01:16;;;;;;;34.70;22.50;;;;;;;21.72;100.00;98975.31;109716;1276;1016340;-75
2022/08/24 19:06:18;;;;;;;32.30;23.40;;;;;;;21.64;100.00;98981.44;109854;1276;1016571;-74
2022/08/24 19:11:22;;;;;;;38.00;23.20;;;;;;;21.58;100.00;98985.05;109842;1276;1018657;-74
2022/08/24 19:16:24;;;;;;;37.20;24.80;;;;;;;21.57;100.00;98991.74;109924;1279;1017162;-75
2022/08/24 19:21:30;;;;;;;36.70;26.10;;;;;;;21.58;100.00;98984.44;109860;1276;1019201;-74
2022/08/24 19:26:33;;;;;;;38.20;26.20;;;;;;;21.57;100.00;98978.42;109852;1279;1017610;-74
2022/08/24 19:31:36;;;;;;;40.70;25.40;;;;;;;21.53;100.00;98979.52;109590;1279;1018210;-77
2022/08/24 19:36:43;;;;;;;41.20;26.00;;;;;;;21.48;100.00;98977.35;109994;1279;1016556;-75
2022/08/24 19:41:56;;;;;;;49.40;29.30;;;;;;;21.42;100.00;98968.65;109736;1279;1018641;-75
2022/08/24 19:46:59;;;;;;;37.10;25.20;;;;;;;21.36;100.00;98970.08;109699;1276;1016644;-74
2022/08/24 19:52:02;;;;;;;34.60;23.70;;;;;;;21.29;100.00;98976.70;162488;1276;1016561;-77
2022/08/24 19:57:53;;;;;;;31.50;24.50;;;;;;;21.23;100.00;98986.83;219815;1276;24309;-76
2022/08/24 20:03:08;;;;;;;37.70;21.70;;;;;;;21.16;100.00;98995.85;220330;1279;22657;-77
2022/08/24 20:08:11;;;;;;;23.40;12.80;;;;;;;21.07;100.00;98993.23;219591;1280;26050;-76
2022/08/24 20:13:14;;;;;;;23.10;11.10;;;;;;;20.96;100.00;98994.54;120513;1277;1016589;-76
2022/08/24 20:18:18;;;;;;;15.80;8.40;;;;;;;20.83;100.00;98995.23;109662;1276;1017461;-75
2022/08/24 20:23:21;;;;;;;15.30;9.50;;;;;;;20.73;100.00;98995.63;109712;1276;1016658;-75
2022/08/24 20:28:45;;;;;;;11.40;7.20;;;;;;;20.65;100.00;98995.31;109541;1279;1018001;-75
2022/08/24 20:34:15;;;;;;;13.90;6.80;;;;;;;20.56;100.00;99004.10;172004;1276;1016317;-75
2022/08/24 20:39:52;;;;;;;9.40;7.10;;;;;;;20.45;100.00;99005.07;183171;1276;1016362;-75
2022/08/24 20:45:39;;;;;;;11.70;7.50;;;;;;;20.33;100.00;99012.69;213196;1276;1003582;-77
2022/08/24 20:50:59;;;;;;;16.50;7.70;;;;;;;20.20;100.00;99025.39;220248;1276;23161;-75
2022/08/24 20:56:23;;;;;;;17.50;8.20;;;;;;;20.07;100.00;99026.75;219728;1276;22575;-76
2022/08/24 21:02:07;;;;;;;16.80;7.50;;;;;;;19.93;100.00;99020.91;220028;1275;23988;-76
2022/08/24 21:07:24;;;;;;;13.50;7.70;;;;;;;19.84;100.00;99021.91;220076;1276;22537;-74
2022/08/24 21:13:22;;;;;;;;;;;;;;;;;;;;;
2022/08/24 21:19:11;;;;;;;15.40;7.40;;;;;;;19.60;100.00;99024.07;220186;1279;22709;-75
2022/08/24 21:24:27;;;;;;;16.50;7.30;;;;;;;19.50;100.00;99025.90;219920;1277;22903;-74
2022/08/24 21:29:39;;;;;;;16.50;8.60;;;;;;;19.40;100.00;99019.11;219675;1277;22561;-75
2022/08/24 21:34:45;;;;;;;18.50;8.20;;;;;;;19.31;100.00;99019.30;219905;1277;23810;-75
2022/08/24 21:40:09;;;;;;;21.90;9.20;;;;;;;19.21;100.00;99021.83;220013;1276;25382;-76
2022/08/24 21:45:18;;;;;;;18.00;8.50;;;;;;;19.10;100.00;99018.17;220267;1275;22686;-75
2022/08/24 21:50:40;;;;;;;15.30;8.90;;;;;;;19.00;100.00;99020.02;219884;1277;22564;-75
2022/08/24 21:55:53;;;;;;;16.60;8.40;;;;;;;18.91;100.00;99012.15;220046;1277;22566;-75
2022/08/24 22:01:04;;;;;;;16.80;8.30;;;;;;;18.84;100.00;99004.27;220141;1277;25093;-76
2022/08/24 22:06:20;;;;;;;11.80;7.80;;;;;;;18.76;100.00;98999.61;220123;1276;25505;-75
2022/08/24 22:11:23;;;;;;;14.50;8.30;;;;;;;18.67;100.00;98988.60;219965;1277;24243;-74
2022/08/24 22:16:37;;;;;;;12.70;7.10;;;;;;;18.62;100.00;98985.58;219910;1276;22743;-76
2022/08/24 22:21:49;;;;;;;15.70;7.90;;;;;;;18.56;100.00;98988.77;219615;1278;22564;-75
2022/08/24 22:27:12;;;;;;;14.30;7.90;;;;;;;18.51;100.00;98993.72;219830;1277;25357;-75
2022/08/24 22:32:40;;;;;;;13.20;7.40;;;;;;;18.43;100.00;98996.03;220056;1276;22598;-75
2022/08/24 22:38:20;;;;;;;19.50;7.20;;;;;;;18.38;100.00;98993.59;220093;1276;22581;-74
2022/08/24 22:49:19;;;;;;;9.90;7.10;;;;;;;18.27;100.00;98993.54;220036;1276;22577;-75
2022/08/24 22:55:04;;;;;;;10.60;6.50;;;;;;;18.27;100.00;98991.20;219913;1277;23963;-75
2022/08/24 23:00:13;;;;;;;12.30;6.90;;;;;;;18.26;100.00;98990.61;219717;1278;22665;-76
2022/08/24 23:05:30;;;;;;;11.90;7.50;;;;;;;18.21;100.00;98985.73;219880;1277;24413;-76
2022/08/24 23:10:40;;;;;;;14.20;7.20;;;;;;;18.16;100.00;98988.10;219667;1278;22638;-77
2022/08/24 23:15:57;;;;;;;18.60;8.40;;;;;;;18.11;100.00;98985.56;219893;1277;22608;-79
2022/08/24 23:21:03;;;;;;;18.40;8.10;;;;;;;18.07;100.00;98970.67;219943;1277;22541;-76
2022/08/24 23:26:26;;;;;;;14.70;9.30;;;;;;;18.03;100.00;98969.46;219814;1277;22535;-77
2022/08/24 23:31:54;;;;;;;17.80;8.80;;;;;;;17.99;100.00;98970.48;220038;1277;22559;-76
2022/08/24 23:37:15;;;;;;;12.00;7.30;;;;;;;17.95;100.00;98971.66;219775;1278;24419;-74
2022/08/24 23:42:31;;;;;;;11.00;7.00;;;;;;;17.92;100.00;98970.55;220109;1277;27416;-74
2022/08/24 23:48:00;;;;;;;15.30;7.90;;;;;;;17.89;100.00;98969.49;219963;1277;22558;-76
2022/08/24 23:53:17;;;;;;;14.60;7.00;;;;;;;17.86;100.00;98969.76;220088;1276;22730;-76
2022/08/24 23:58:42;;;;;;;11.10;6.70;;;;;;;17.82;100.00;98973.86;220254;1278;22605;-76
